createdAt,value
2022-10-05T00:01:22.263Z,7.30
2022-10-05T00:11:15.942Z,8.40
2022-10-05T00:16:20.797Z,8.40
2022-10-05T00:18:50.871Z,8.40
2022-10-05T00:21:24.487Z,8.40
2022-10-05T00:23:52.805Z,8.30
2022-10-05T00:26:33.070Z,8.50
2022-10-05T00:29:02.316Z,8.40
2022-10-05T00:31:36.404Z,8.40
2022-10-05T00:36:32.023Z,8.20
2022-10-05T00:39:01.863Z,8.40
2022-10-05T00:41:49.659Z,8.40
2022-10-05T00:44:43.392Z,8.20
2022-10-05T00:47:43.367Z,8.20
2022-10-05T00:50:36.624Z,8.30
2022-10-05T00:53:28.629Z,7.80
2022-10-05T00:56:27.132Z,7.80
2022-10-05T00:59:26.804Z,7.90
2022-10-05T01:02:06.130Z,8.20
2022-10-05T01:05:02.114Z,8.30
2022-10-05T01:07:49.423Z,7.70
2022-10-05T01:10:31.753Z,8.60
2022-10-05T01:13:09.097Z,8.30
2022-10-05T01:15:51.736Z,8.70
2022-10-05T01:18:30.061Z,8.30
2022-10-05T01:21:06.517Z,8.30
2022-10-05T01:24:10.280Z,8.20
2022-10-05T01:27:04.816Z,8.10
2022-10-05T01:29:45.531Z,8.10
2022-10-05T01:32:32.278Z,8.20
2022-10-05T01:35:21.009Z,8.20
2022-10-05T01:38:12.986Z,8.20
2022-10-05T01:41:06.664Z,8.20
2022-10-05T01:43:44.853Z,8.20
2022-10-05T01:46:32.846Z,8.10
2022-10-05T01:49:21.634Z,8.20
2022-10-05T01:52:13.753Z,8.60
2022-10-05T01:55:11.685Z,8.20
2022-10-05T01:58:00.232Z,8.50
2022-10-05T02:00:30.018Z,8.10
2022-10-05T02:03:03.678Z,8.10
2022-10-05T02:05:44.559Z,8.10
2022-10-05T02:08:19.901Z,8.40
2022-10-05T02:10:54.049Z,8.10
2022-10-05T02:13:29.504Z,8.20
2022-10-05T02:16:01.996Z,8.00
2022-10-05T02:18:36.866Z,11.90
2022-10-05T02:21:08.840Z,8.00
2022-10-05T02:23:40.597Z,8.00
2022-10-05T02:26:11.214Z,7.90
2022-10-05T02:28:47.806Z,8.00
2022-10-05T02:31:20.146Z,8.10
2022-10-05T02:36:23.953Z,8.00
2022-10-05T02:39:13.804Z,8.10
2022-10-05T02:41:53.633Z,8.00
2022-10-05T02:44:53.395Z,7.60
2022-10-05T02:47:42.695Z,7.90
2022-10-05T02:50:30.256Z,7.70
2022-10-05T02:53:19.205Z,7.90
2022-10-05T02:56:11.368Z,7.90
2022-10-05T02:58:52.810Z,8.00
2022-10-05T03:01:31.564Z,8.40
2022-10-05T03:04:19.369Z,8.00
2022-10-05T03:06:55.006Z,8.00
2022-10-05T03:09:25.196Z,7.90
2022-10-05T03:12:23.690Z,7.90
2022-10-05T03:15:07.453Z,10.90
2022-10-05T03:17:50.037Z,7.80
2022-10-05T03:20:34.389Z,7.90
2022-10-05T03:23:05.103Z,7.80
2022-10-05T03:25:54.628Z,8.10
2022-10-05T03:28:57.211Z,7.80
2022-10-05T03:31:42.194Z,7.90
2022-10-05T03:34:17.078Z,7.40
2022-10-05T03:36:59.175Z,7.80
2022-10-05T03:39:46.699Z,7.80
2022-10-05T03:42:30.270Z,7.80
2022-10-05T03:45:05.812Z,7.60
2022-10-05T03:47:56.659Z,7.70
2022-10-05T03:50:57.487Z,7.70
2022-10-05T03:53:31.295Z,7.80
2022-10-05T03:56:23.881Z,7.70
2022-10-05T03:59:00.510Z,7.70
2022-10-05T04:01:54.252Z,7.70
2022-10-05T04:04:40.861Z,7.70
2022-10-05T04:07:20.549Z,7.70
2022-10-05T04:09:50.148Z,7.70
2022-10-05T04:12:32.534Z,7.70
2022-10-05T04:15:07.997Z,7.60
2022-10-05T04:17:42.526Z,7.70
2022-10-05T04:20:38.561Z,8.20
2022-10-05T04:23:19.394Z,8.20
2022-10-05T04:25:54.154Z,8.30
2022-10-05T04:28:57.545Z,7.70
2022-10-05T04:31:48.365Z,7.90
2022-10-05T04:34:40.637Z,7.70
2022-10-05T04:37:16.368Z,7.80
2022-10-05T04:40:01.058Z,7.70
2022-10-05T04:42:38.348Z,8.20
2022-10-05T04:45:20.173Z,7.70
2022-10-05T04:48:15.865Z,7.70
2022-10-05T04:51:09.354Z,7.80
2022-10-05T04:53:48.419Z,7.70
2022-10-05T04:56:28.333Z,7.70
2022-10-05T04:59:25.264Z,7.80
2022-10-05T05:02:11.443Z,7.90
2022-10-05T05:04:58.509Z,7.80
2022-10-05T05:07:49.596Z,7.80
2022-10-05T05:10:48.315Z,7.80
2022-10-05T05:13:50.994Z,7.80
2022-10-05T05:16:32.899Z,7.70
2022-10-05T05:19:26.103Z,7.80
2022-10-05T05:22:00.289Z,7.90
2022-10-05T05:25:00.979Z,7.90
2022-10-05T05:27:43.720Z,8.00
2022-10-05T05:30:37.757Z,7.90
2022-10-05T05:33:19.104Z,7.90
2022-10-05T05:36:14.816Z,7.40
2022-10-05T05:39:10.581Z,7.90
2022-10-05T05:42:28.320Z,10.10
2022-10-05T05:45:00.323Z,8.00
2022-10-05T05:47:38.850Z,8.00
2022-10-05T05:50:32.538Z,7.40
2022-10-05T05:53:20.076Z,7.90
2022-10-05T05:55:54.271Z,7.90
2022-10-05T05:58:29.934Z,8.00
2022-10-05T06:01:30.564Z,7.90
2022-10-05T06:04:29.249Z,8.00
2022-10-05T06:07:01.359Z,7.90
2022-10-05T06:09:39.591Z,8.20
2022-10-05T06:12:12.289Z,8.20
2022-10-05T06:14:50.617Z,8.10
2022-10-05T06:17:27.263Z,8.50
2022-10-05T06:20:03.954Z,8.10
2022-10-05T06:22:39.058Z,8.00
2022-10-05T06:25:34.503Z,8.00
2022-10-05T06:28:14.112Z,8.10
2022-10-05T06:31:02.061Z,8.10
2022-10-05T06:33:52.647Z,8.10
2022-10-05T06:36:42.597Z,8.10
2022-10-05T06:39:35.726Z,8.20
2022-10-05T06:42:37.468Z,8.10
2022-10-05T06:45:19.026Z,8.50
2022-10-05T06:48:17.620Z,8.50
2022-10-05T06:50:52.944Z,8.70
2022-10-05T06:53:34.412Z,9.30
2022-10-05T06:56:10.507Z,9.30
2022-10-05T06:58:55.131Z,9.40
2022-10-05T07:01:37.598Z,9.40
2022-10-05T07:04:34.586Z,8.90
2022-10-05T07:07:25.545Z,9.20
2022-10-05T07:10:17.331Z,9.10
2022-10-05T07:12:58.983Z,8.70
2022-10-05T07:15:45.291Z,9.00
2022-10-05T07:18:34.574Z,8.80
2022-10-05T07:21:31.674Z,8.90
2022-10-05T07:24:25.906Z,8.80
2022-10-05T07:27:25.059Z,9.00
2022-10-05T07:30:04.879Z,9.00
2022-10-05T07:32:46.021Z,9.20
2022-10-05T07:35:50.163Z,8.90
2022-10-05T07:38:46.285Z,8.60
2022-10-05T07:41:33.690Z,8.60
2022-10-05T07:44:24.605Z,8.50
2022-10-05T07:46:57.088Z,8.50
2022-10-05T07:49:51.027Z,8.60
2022-10-05T07:52:33.776Z,8.70
2022-10-05T07:55:20.541Z,8.70
2022-10-05T07:58:02.105Z,8.80
2022-10-05T08:00:49.279Z,8.60
2022-10-05T08:03:29.937Z,8.60
2022-10-05T08:05:59.938Z,8.60
2022-10-05T08:08:38.845Z,8.70
2022-10-05T08:11:17.845Z,8.60
2022-10-05T08:14:01.459Z,8.60
2022-10-05T08:16:36.750Z,8.60
2022-10-05T08:19:23.734Z,8.70
2022-10-05T08:22:08.936Z,8.60
2022-10-05T08:24:59.865Z,8.50
2022-10-05T08:27:47.121Z,8.50
2022-10-05T08:30:16.839Z,8.50
2022-10-05T08:33:10.188Z,8.60
2022-10-05T08:35:44.163Z,8.60
2022-10-05T08:38:17.606Z,8.90
2022-10-05T08:41:22.542Z,9.00
2022-10-05T08:44:25.442Z,9.30
2022-10-05T08:47:13.697Z,9.60
2022-10-05T08:50:03.637Z,10.00
2022-10-05T08:53:08.420Z,9.70
2022-10-05T08:55:58.677Z,9.90
2022-10-05T08:58:57.616Z,9.70
2022-10-05T09:01:50.478Z,9.90
2022-10-05T09:04:33.506Z,9.50
2022-10-05T09:07:15.721Z,9.20
2022-10-05T09:10:14.074Z,9.30
2022-10-05T09:13:16.677Z,9.50
2022-10-05T09:16:04.188Z,10.60
2022-10-05T09:19:04.643Z,10.20
2022-10-05T09:21:56.855Z,10.00
2022-10-05T09:24:36.111Z,10.10
2022-10-05T09:27:15.680Z,9.60
2022-10-05T09:30:13.997Z,9.70
2022-10-05T09:33:13.814Z,9.30
2022-10-05T09:36:16.690Z,9.30
2022-10-05T09:39:13.725Z,9.90
2022-10-05T09:42:03.771Z,9.30
2022-10-05T09:45:11.356Z,12.70
2022-10-05T09:47:56.628Z,13.10
2022-10-05T09:50:44.578Z,10.20
2022-10-05T09:53:41.010Z,9.10
2022-10-05T09:56:29.367Z,9.60
2022-10-05T09:59:18.099Z,9.40
2022-10-05T10:02:27.817Z,9.70
2022-10-05T10:05:26.211Z,10.30
2022-10-05T10:08:29.086Z,9.70
2022-10-05T10:11:18.663Z,9.90
2022-10-05T10:14:12.967Z,9.50
2022-10-05T10:17:15.921Z,10.70
2022-10-05T10:20:07.031Z,11.30
2022-10-05T10:22:56.196Z,15.80
2022-10-05T10:25:47.895Z,16.30
2022-10-05T10:28:37.995Z,16.50
2022-10-05T10:31:26.790Z,20.00
2022-10-05T10:34:29.494Z,16.40
2022-10-05T10:37:32.718Z,12.30
2022-10-05T10:40:23.788Z,10.40
2022-10-05T10:43:26.790Z,10.30
2022-10-05T10:46:25.081Z,10.50
2022-10-05T10:49:23.724Z,12.20
2022-10-05T10:52:10.953Z,12.20
2022-10-05T10:55:10.321Z,11.70
2022-10-05T10:58:05.480Z,17.40
2022-10-05T11:00:50.682Z,20.60
2022-10-05T11:03:44.048Z,23.20
2022-10-05T11:06:34.030Z,17.70
2022-10-05T11:09:33.430Z,13.80
2022-10-05T11:12:36.406Z,13.30
2022-10-05T11:15:33.316Z,12.10
2022-10-05T11:18:22.718Z,13.00
2022-10-05T11:21:18.935Z,18.70
2022-10-05T11:24:21.531Z,18.20
2022-10-05T11:27:23.502Z,21.40
2022-10-05T11:30:16.607Z,21.40
2022-10-05T11:33:11.602Z,19.70
2022-10-05T11:36:02.097Z,16.60
2022-10-05T11:39:00.003Z,12.60
2022-10-05T11:42:02.716Z,12.00
2022-10-05T11:45:02.732Z,11.70
2022-10-05T11:47:45.844Z,9.20
2022-10-05T11:50:25.335Z,11.30
2022-10-05T11:53:11.492Z,11.30
2022-10-05T11:56:04.563Z,10.90
2022-10-05T11:58:37.536Z,10.80
2022-10-05T12:01:22.414Z,11.30
2022-10-05T12:04:13.820Z,11.70
2022-10-05T12:07:09.808Z,11.70
2022-10-05T12:10:14.208Z,10.90
2022-10-05T12:12:52.624Z,10.80
2022-10-05T12:15:27.070Z,10.20
2022-10-05T12:18:08.635Z,10.10
2022-10-05T12:20:56.607Z,10.30
2022-10-05T12:23:35.201Z,10.80
2022-10-05T12:26:11.267Z,11.10
2022-10-05T12:28:46.579Z,11.00
2022-10-05T12:31:31.704Z,11.50
2022-10-05T12:34:15.416Z,10.50
2022-10-05T12:37:08.761Z,11.00
2022-10-05T12:40:06.643Z,10.90
2022-10-05T12:42:51.410Z,11.00
2022-10-05T12:45:35.053Z,11.20
2022-10-05T12:48:32.627Z,13.00
2022-10-05T12:51:12.816Z,13.30
2022-10-05T12:53:53.882Z,11.60
2022-10-05T12:56:40.348Z,11.80
2022-10-05T12:59:25.817Z,11.10
2022-10-05T13:02:18.174Z,11.60
2022-10-05T13:05:17.014Z,11.40
2022-10-05T13:08:07.718Z,12.60
2022-10-05T13:11:01.990Z,11.80
2022-10-05T13:13:56.046Z,11.00
2022-10-05T13:16:38.762Z,9.80
2022-10-05T13:19:28.784Z,10.50
2022-10-05T13:22:18.881Z,10.30
2022-10-05T13:25:10.849Z,10.00
2022-10-05T13:27:59.194Z,10.30
2022-10-05T13:33:05.148Z,10.10
2022-10-05T13:36:00.550Z,10.10
2022-10-05T13:38:49.929Z,10.00
2022-10-05T13:41:26.861Z,10.00
2022-10-05T13:44:14.502Z,10.30
2022-10-05T13:46:58.796Z,10.70
2022-10-05T13:49:41.999Z,10.60
2022-10-05T13:52:35.574Z,10.30
2022-10-05T13:55:34.205Z,10.70
2022-10-05T13:58:21.264Z,10.80
2022-10-05T14:00:55.598Z,10.00
2022-10-05T14:03:36.798Z,10.10
2022-10-05T14:06:15.073Z,10.00
2022-10-05T14:08:53.180Z,9.80
2022-10-05T14:11:34.439Z,9.80
2022-10-05T14:14:20.532Z,9.80
2022-10-05T14:16:56.362Z,9.60
2022-10-05T14:19:28.369Z,9.80
2022-10-05T14:22:15.866Z,10.10
2022-10-05T14:24:56.262Z,9.50
2022-10-05T14:27:29.200Z,9.10
2022-10-05T14:30:01.796Z,9.70
2022-10-05T14:32:34.789Z,9.80
2022-10-05T14:35:18.796Z,9.40
2022-10-05T14:37:57.456Z,9.50
2022-10-05T14:40:31.293Z,9.50
2022-10-05T14:43:02.819Z,9.60
2022-10-05T14:48:11.491Z,9.80
2022-10-05T14:50:53.543Z,9.40
2022-10-05T14:53:25.211Z,9.60
2022-10-05T14:56:17.508Z,9.40
2022-10-05T14:59:14.318Z,9.30
2022-10-05T15:01:54.279Z,9.20
2022-10-05T15:04:43.155Z,9.60
2022-10-05T15:07:25.492Z,9.50
2022-10-05T15:10:05.239Z,9.30
2022-10-05T15:12:40.888Z,9.30
2022-10-05T15:15:28.949Z,9.10
2022-10-05T15:18:01.872Z,9.10
2022-10-05T15:21:00.212Z,9.00
2022-10-05T15:23:38.166Z,9.00
2022-10-05T15:26:32.430Z,8.90
2022-10-05T15:29:10.913Z,8.90
2022-10-05T15:31:55.295Z,8.90
2022-10-05T15:34:44.838Z,9.40
2022-10-05T15:37:22.785Z,8.80
2022-10-05T15:40:00.382Z,8.80
2022-10-05T15:42:38.854Z,9.30
2022-10-05T15:45:30.979Z,8.80
2022-10-05T15:48:20.751Z,8.80
2022-10-05T15:51:01.365Z,8.80
2022-10-05T15:53:40.469Z,8.60
2022-10-05T15:56:22.162Z,8.80
2022-10-05T15:59:07.464Z,8.30
2022-10-05T16:02:01.055Z,8.80
2022-10-05T16:05:04.488Z,8.90
2022-10-05T16:07:55.312Z,9.00
2022-10-05T16:10:27.174Z,9.20
2022-10-05T16:13:21.603Z,8.90
2022-10-05T16:15:58.423Z,9.30
2022-10-05T16:19:01.325Z,9.00
2022-10-05T16:21:41.534Z,8.90
2022-10-05T16:24:25.005Z,8.70
2022-10-05T16:27:01.063Z,8.80
2022-10-05T16:29:50.960Z,9.00
2022-10-05T16:32:30.801Z,8.90
2022-10-05T16:35:29.568Z,8.90
2022-10-05T16:38:10.943Z,12.20
2022-10-05T16:40:50.893Z,9.00
2022-10-05T16:43:51.050Z,9.00
2022-10-05T16:46:46.560Z,8.80
2022-10-05T16:49:40.291Z,8.70
2022-10-05T16:52:10.869Z,8.70
2022-10-05T16:54:49.205Z,8.80
2022-10-05T16:57:22.708Z,8.60
2022-10-05T17:00:16.186Z,6.80
2022-10-05T17:02:59.307Z,8.60
2022-10-05T17:05:47.964Z,8.40
2022-10-05T17:08:46.298Z,8.00
2022-10-05T17:11:42.730Z,8.40
2022-10-05T17:14:41.353Z,9.00
2022-10-05T17:17:30.751Z,8.50
2022-10-05T17:20:25.629Z,8.40
2022-10-05T17:22:59.393Z,5.70
2022-10-05T17:25:45.306Z,8.60
2022-10-05T17:28:45.047Z,8.50
2022-10-05T17:31:17.440Z,9.30
2022-10-05T17:34:20.442Z,8.70
2022-10-05T17:36:51.572Z,8.60
2022-10-05T17:39:22.158Z,8.90
2022-10-05T17:44:22.710Z,8.70
2022-10-05T17:46:53.435Z,9.00
2022-10-05T17:49:47.218Z,8.60
2022-10-05T17:52:45.475Z,8.70
2022-10-05T17:55:42.996Z,8.70
2022-10-05T17:58:45.654Z,8.60
2022-10-05T18:01:17.437Z,8.90
2022-10-05T18:03:50.581Z,8.50
2022-10-05T18:06:35.551Z,9.20
2022-10-05T18:09:29.512Z,8.60
2022-10-05T18:12:25.742Z,8.60
2022-10-05T18:15:22.943Z,8.30
2022-10-05T18:17:58.572Z,8.60
2022-10-05T18:20:36.320Z,7.20
2022-10-05T18:23:27.490Z,8.30
2022-10-05T18:26:29.951Z,8.30
2022-10-05T18:29:40.152Z,8.20
2022-10-05T18:32:35.158Z,8.20
2022-10-05T18:35:12.818Z,8.30
2022-10-05T18:37:55.891Z,8.30
2022-10-05T18:40:38.467Z,8.20
2022-10-05T18:43:30.175Z,8.20
2022-10-05T18:46:25.148Z,8.40
2022-10-05T18:49:18.234Z,8.30
2022-10-05T18:51:53.761Z,8.00
2022-10-05T18:54:57.849Z,8.30
2022-10-05T18:57:47.984Z,7.90
2022-10-05T19:00:21.099Z,8.40
2022-10-05T19:03:05.140Z,7.90
2022-10-05T19:05:49.230Z,8.10
2022-10-05T19:08:41.090Z,7.80
2022-10-05T19:11:23.494Z,8.20
2022-10-05T19:14:17.389Z,8.10
2022-10-05T19:17:08.610Z,8.20
2022-10-05T19:19:57.074Z,8.00
2022-10-05T19:22:48.877Z,7.90
2022-10-05T19:25:43.630Z,7.70
2022-10-05T19:28:35.683Z,7.90
2022-10-05T19:31:30.802Z,8.00
2022-10-05T19:34:20.807Z,7.70
2022-10-05T19:37:04.222Z,7.70
2022-10-05T19:39:54.014Z,11.00
2022-10-05T19:42:44.654Z,7.90
2022-10-05T19:45:23.809Z,7.90
2022-10-05T19:48:17.216Z,7.20
2022-10-05T19:51:04.991Z,8.10
2022-10-05T19:53:40.066Z,8.20
2022-10-05T19:56:21.139Z,8.20
2022-10-05T19:58:58.290Z,8.40
2022-10-05T20:01:35.273Z,8.30
2022-10-05T20:04:05.543Z,7.40
2022-10-05T20:06:34.187Z,8.00
2022-10-05T20:09:19.908Z,7.40
2022-10-05T20:11:52.540Z,6.00
2022-10-05T20:14:30.597Z,8.20
2022-10-05T20:17:32.357Z,8.20
2022-10-05T20:20:22.900Z,8.50
2022-10-05T20:25:37.427Z,7.00
2022-10-05T20:30:36.157Z,8.40
2022-10-05T20:38:10.317Z,8.40
2022-10-05T20:43:10.033Z,8.40
2022-10-05T20:48:11.774Z,8.50
2022-10-05T20:50:40.132Z,8.60
2022-10-05T21:18:09.675Z,8.20
2022-10-05T21:20:37.490Z,8.60
2022-10-05T21:23:05.014Z,7.70
2022-10-05T21:35:26.262Z,8.40
2022-10-05T21:47:48.160Z,8.80
2022-10-05T21:52:43.952Z,7.90
2022-10-05T22:00:10.676Z,8.40
2022-10-05T22:05:06.789Z,8.20
2022-10-05T22:17:32.444Z,7.70
2022-10-05T22:20:01.045Z,7.90
2022-10-05T22:22:29.761Z,8.10
2022-10-05T22:27:28.273Z,8.30
2022-10-05T22:29:57.408Z,8.40
2022-10-05T22:52:09.205Z,8.40
2022-10-05T23:06:58.136Z,7.90
2022-10-05T23:11:54.677Z,8.60
2022-10-05T23:24:15.582Z,8.40
2022-10-05T23:26:43.109Z,8.80
2022-10-05T23:29:11.238Z,9.00
2022-10-05T23:31:38.855Z,8.40
2022-10-05T23:41:33.302Z,8.90
2022-10-05T23:48:57.239Z,8.30
